Time;durP1;ratioP1;P1;durP2;ratioP2;P2;SDS_P1;SDS_P2;PMS_P1;PMS_P2;Temp;Humidity;BMP_temperature;BMP_pressure;BME280_temperature;BME280_humidity;BME280_pressure;Samples;Min_cycle;Max_cycle;Signal;HPM_P1;HPM_P2
2022/10/21 00:02:16;;;;;;;8.80;6.50;;;;;;;12.50;76.15;98060.72;5040261;28;20039;-82
2022/10/21 00:04:41;;;;;;;10.82;6.90;;;;;;;12.43;75.78;98049.44;5040941;28;20039;-82
2022/10/21 00:07:07;;;;;;;7.57;6.63;;;;;;;12.51;76.70;98033.38;5041949;28;20025;-82
2022/10/21 00:09:32;;;;;;;10.65;6.97;;;;;;;12.57;75.92;98016.75;5037438;28;20108;-82
2022/10/21 00:11:58;;;;;;;10.77;7.40;;;;;;;12.55;75.62;97997.75;5041340;28;20043;-83
2022/10/21 00:14:23;;;;;;;8.73;6.70;;;;;;;12.53;75.79;97996.34;5040912;28;20064;-82
2022/10/21 00:16:49;;;;;;;9.93;7.15;;;;;;;12.48;75.68;97999.63;5041066;28;20117;-82
2022/10/21 00:19:14;;;;;;;11.73;7.13;;;;;;;12.41;75.84;98008.56;5041580;28;20111;-83
2022/10/21 00:21:41;;;;;;;9.68;6.90;;;;;;;12.34;76.04;98016.50;5041833;28;20037;-82
2022/10/21 00:24:07;;;;;;;7.82;7.03;;;;;;;12.28;76.58;98023.41;5041153;28;20091;-82
2022/10/21 00:26:32;;;;;;;8.52;6.72;;;;;;;12.23;77.15;98022.44;5041880;28;20033;-82
2022/10/21 00:28:58;;;;;;;10.68;7.00;;;;;;;12.28;76.99;98019.97;5041217;28;20047;-82
2022/10/21 00:31:24;;;;;;;7.30;6.28;;;;;;;12.24;76.68;98014.34;5040969;28;20028;-82
2022/10/21 00:33:50;;;;;;;11.55;7.47;;;;;;;12.28;76.48;98009.47;5040758;28;20393;-83
2022/10/21 00:36:16;;;;;;;8.88;7.28;;;;;;;12.25;76.87;98004.66;5046102;28;20067;-82
2022/10/21 00:38:44;;;;;;;11.07;6.70;;;;;;;12.26;78.35;98001.00;5040650;28;20056;-82
2022/10/21 00:41:12;;;;;;;9.15;7.20;;;;;;;12.17;77.94;97987.28;5041845;28;20068;-82
2022/10/21 00:44:07;;;;;;;8.73;6.82;;;;;;;12.12;78.05;97981.06;5040593;28;20618;-83
2022/10/21 00:46:42;;;;;;;8.85;7.13;;;;;;;12.05;78.10;97991.59;5041419;28;20044;-82
2022/10/21 00:49:23;;;;;;;7.82;6.88;;;;;;;11.99;78.03;97995.88;5041694;28;20354;-82
2022/10/21 00:51:55;;;;;;;11.93;7.68;;;;;;;11.98;78.13;97999.53;5045349;28;20443;-82
2022/10/21 00:54:24;;;;;;;9.15;6.75;;;;;;;12.01;77.85;97993.06;5040993;28;20039;-82
2022/10/21 00:56:53;;;;;;;11.82;7.13;;;;;;;12.01;78.34;97962.31;5041134;28;20033;-82
2022/10/21 00:59:22;;;;;;;8.75;7.25;;;;;;;11.98;78.14;97941.69;5039837;28;20033;-81
2022/10/21 01:01:48;;;;;;;10.48;7.57;;;;;;;11.89;78.16;97944.81;5045327;28;20067;-83
2022/10/21 01:04:14;;;;;;;8.52;6.80;;;;;;;11.90;78.85;97976.13;5041976;28;20156;-82
2022/10/21 01:06:40;;;;;;;7.80;7.00;;;;;;;11.90;78.65;97985.84;5040089;28;20115;-83
2022/10/21 01:09:06;;;;;;;9.77;6.95;;;;;;;11.87;78.05;97981.00;5041482;28;20041;-82
2022/10/21 01:11:44;;;;;;;9.18;7.00;;;;;;;11.88;78.56;97970.28;5035800;28;20060;-83
2022/10/21 01:14:36;;;;;;;11.18;7.28;;;;;;;11.90;78.30;97959.56;5041682;28;20364;-82
2022/10/21 01:17:19;;;;;;;8.77;6.85;;;;;;;11.83;78.42;97951.72;5041619;28;20489;-82
2022/10/21 01:20:07;;;;;;;8.00;6.45;;;;;;;11.76;79.05;97943.84;5038522;28;20150;-83
2022/10/21 01:22:48;;;;;;;9.65;6.70;;;;;;;11.73;78.86;97936.38;5042595;28;20034;-83
2022/10/21 01:25:44;;;;;;;11.15;8.00;;;;;;;11.69;79.42;97937.78;5045262;28;20036;-82
2022/10/21 01:28:32;;;;;;;6.97;6.05;;;;;;;11.59;79.92;97920.91;5043906;28;20037;-82
2022/10/21 01:31:11;;;;;;;12.90;7.38;;;;;;;11.56;80.43;97931.81;5045422;28;20026;-82
2022/10/21 01:34:02;;;;;;;9.40;6.50;;;;;;;11.49;80.57;97930.03;5032660;28;20064;-82
2022/10/21 01:36:54;;;;;;;8.88;6.80;;;;;;;11.36;80.86;97914.31;5045400;28;20033;-82
2022/10/21 01:39:44;;;;;;;9.07;6.85;;;;;;;11.40;81.39;97922.59;5043724;28;20083;-82
2022/10/21 01:42:24;;;;;;;10.43;7.55;;;;;;;11.38;81.33;97914.91;5055519;28;20592;-82
2022/10/21 01:45:01;;;;;;;8.45;7.30;;;;;;;11.34;81.27;97918.19;5044354;28;20033;-82
2022/10/21 01:47:41;;;;;;;9.90;7.07;;;;;;;11.38;81.62;97924.63;5046150;28;20155;-82
2022/10/21 01:50:17;;;;;;;9.45;7.07;;;;;;;11.34;81.79;97924.25;5044325;28;20670;-82
2022/10/21 01:52:48;;;;;;;9.00;7.22;;;;;;;11.35;81.35;97925.84;5043826;28;20029;-82
2022/10/21 01:55:20;;;;;;;7.85;6.88;;;;;;;11.42;82.02;97918.75;5042454;28;20025;-82
2022/10/21 01:57:55;;;;;;;10.80;7.07;;;;;;;11.48;81.50;97915.28;5043716;28;20040;-82
2022/10/21 02:00:21;;;;;;;10.00;7.18;;;;;;;11.48;80.82;97915.28;5041813;28;20036;-82
2022/10/21 02:02:48;;;;;;;9.77;7.25;;;;;;;11.52;81.29;97911.22;5042867;28;20044;-82
2022/10/21 02:05:27;;;;;;;10.50;7.30;;;;;;;11.51;81.25;97917.50;5044593;28;20040;-83
2022/10/21 02:07:54;;;;;;;11.27;7.15;;;;;;;11.50;80.97;97917.69;5048917;28;20033;-82
2022/10/21 02:10:23;;;;;;;11.30;7.10;;;;;;;11.51;81.01;97920.13;5044779;28;20044;-82
2022/10/21 02:12:55;;;;;;;13.15;7.53;;;;;;;11.50;81.32;97910.63;5043639;28;20044;-82
2022/10/21 02:15:24;;;;;;;9.90;7.25;;;;;;;11.53;81.48;97922.53;5043843;28;20041;-82
2022/10/21 02:18:03;;;;;;;10.23;7.32;;;;;;;11.50;81.73;97931.63;5045293;28;20037;-82
2022/10/21 02:20:36;;;;;;;9.10;6.72;;;;;;;11.43;81.56;97922.97;5044511;28;20033;-82
2022/10/21 02:23:03;;;;;;;9.45;6.72;;;;;;;11.36;81.60;97926.66;5043996;28;20047;-82
2022/10/21 02:25:35;;;;;;;10.65;7.65;;;;;;;11.38;82.33;97929.88;5046853;28;20037;-82
2022/10/21 02:28:02;;;;;;;11.13;7.68;;;;;;;11.33;82.04;97922.59;5043477;28;20094;-82
2022/10/21 02:30:44;;;;;;;14.05;7.72;;;;;;;11.31;82.47;97919.41;5043887;28;20060;-82
2022/10/21 02:33:22;;;;;;;9.55;7.13;;;;;;;11.20;82.40;97925.28;5043628;28;20036;-82
2022/10/21 02:36:01;;;;;;;9.10;7.00;;;;;;;11.14;83.19;97918.25;5044161;28;20071;-82
2022/10/21 02:38:39;;;;;;;10.48;8.27;;;;;;;11.09;83.70;97910.19;5043545;28;20029;-83
2022/10/21 02:41:10;;;;;;;11.07;7.05;;;;;;;10.98;84.05;97920.31;5043091;28;20106;-82
2022/10/21 02:43:45;;;;;;;10.82;8.07;;;;;;;10.98;84.53;97909.03;5045502;28;20025;-82
2022/10/21 02:46:13;;;;;;;7.82;6.57;;;;;;;10.89;84.56;97916.28;5041830;28;20041;-82
2022/10/21 02:48:43;;;;;;;13.32;8.38;;;;;;;10.85;84.92;97907.22;5043401;28;20389;-82
2022/10/21 02:51:10;;;;;;;11.00;7.57;;;;;;;10.78;85.18;97903.81;5042593;28;20037;-82
2022/10/21 02:53:35;;;;;;;11.43;7.90;;;;;;;10.77;85.35;97896.94;5043941;28;20036;-82
2022/10/21 02:56:01;;;;;;;13.00;8.32;;;;;;;10.74;85.55;97902.63;5040919;28;20079;-82
2022/10/21 02:58:27;;;;;;;9.65;7.80;;;;;;;10.68;85.84;97906.88;5043763;28;20033;-82
2022/10/21 03:00:52;;;;;;;9.27;7.40;;;;;;;10.69;86.08;97905.06;5042843;28;20068;-82
2022/10/21 03:03:18;;;;;;;12.27;8.00;;;;;;;10.70;86.04;97901.41;5042343;28;20037;-82
2022/10/21 03:05:44;;;;;;;9.32;7.45;;;;;;;10.66;86.03;97897.56;5043440;28;20049;-83
2022/10/21 03:08:09;;;;;;;10.18;8.15;;;;;;;10.62;86.50;97888.53;5040662;28;20063;-82
2022/10/21 03:10:35;;;;;;;10.23;7.15;;;;;;;10.60;86.43;97880.84;5039554;28;20042;-82
2022/10/21 03:13:00;;;;;;;11.55;6.75;;;;;;;10.58;86.46;97882.88;5042448;28;20115;-82
2022/10/21 03:15:26;;;;;;;12.35;7.93;;;;;;;10.57;86.38;97878.66;5042040;28;20074;-82
2022/10/21 03:17:51;;;;;;;14.82;8.75;;;;;;;10.61;86.31;97876.41;5043644;28;20045;-82
2022/10/21 03:20:17;;;;;;;13.75;8.07;;;;;;;10.60;86.03;97869.53;5047342;28;20112;-82
2022/10/21 03:22:43;;;;;;;15.80;9.82;;;;;;;10.57;86.15;97851.63;5042156;28;20079;-83
2022/10/21 03:25:09;;;;;;;15.45;11.55;;;;;;;10.59;86.00;97846.97;5042291;28;20490;-82
2022/10/21 03:27:35;;;;;;;13.20;10.35;;;;;;;10.57;86.32;97843.75;5042756;28;20057;-82
2022/10/21 03:30:01;;;;;;;13.75;9.07;;;;;;;10.56;86.44;97836.91;5042875;28;20071;-82
2022/10/21 03:32:26;;;;;;;12.60;8.55;;;;;;;10.51;86.53;97829.63;5042035;28;20029;-82
2022/10/21 03:34:52;;;;;;;13.85;8.27;;;;;;;10.52;86.39;97835.69;5044132;28;20039;-83
2022/10/21 03:37:17;;;;;;;11.75;8.45;;;;;;;10.42;86.32;97826.41;5041654;28;20037;-82
2022/10/21 03:39:42;;;;;;;9.75;7.68;;;;;;;10.45;86.65;97827.84;5043051;28;20477;-83
2022/10/21 03:42:08;;;;;;;9.45;8.32;;;;;;;10.49;86.61;97841.31;5041450;28;20065;-83
2022/10/21 03:44:33;;;;;;;10.05;7.72;;;;;;;10.49;86.42;97841.31;5041274;28;20469;-82
2022/10/21 03:46:59;;;;;;;10.63;7.93;;;;;;;10.47;86.64;97838.91;5040378;28;20029;-82
2022/10/21 03:49:24;;;;;;;11.65;8.40;;;;;;;10.52;86.46;97854.03;5042052;28;20029;-82
2022/10/21 03:51:50;;;;;;;11.00;8.00;;;;;;;10.52;86.67;97838.31;5042625;28;20064;-82
2022/10/21 03:54:16;;;;;;;11.27;8.75;;;;;;;10.54;86.59;97849.38;5042100;28;20044;-83
2022/10/21 03:56:42;;;;;;;12.25;8.90;;;;;;;10.53;86.47;97837.28;5041235;28;20492;-82
2022/10/21 03:59:08;;;;;;;13.25;9.70;;;;;;;10.52;86.61;97830.44;5041261;28;20028;-82
2022/10/21 04:01:33;;;;;;;15.35;10.65;;;;;;;10.51;86.83;97834.09;5041814;28;20034;-82
2022/10/21 04:03:59;;;;;;;12.48;9.00;;;;;;;10.57;86.82;97839.31;5041349;28;20033;-83
2022/10/21 04:06:24;;;;;;;12.98;9.13;;;;;;;10.58;86.79;97834.88;5040744;28;20056;-82
2022/10/21 04:08:50;;;;;;;13.20;9.25;;;;;;;10.63;86.51;97829.81;5041435;28;20033;-82
2022/10/21 04:11:15;;;;;;;12.25;9.00;;;;;;;10.63;86.26;97832.44;5036368;28;20025;-83
2022/10/21 04:13:41;;;;;;;12.52;8.95;;;;;;;10.67;86.34;97825.75;5041942;28;20032;-82
2022/10/21 04:16:13;;;;;;;12.40;9.30;;;;;;;10.61;86.32;97830.00;5041881;28;20041;-83
2022/10/21 04:18:39;;;;;;;11.63;9.30;;;;;;;10.62;86.48;97830.84;5041900;28;20166;-83
2022/10/21 04:21:04;;;;;;;15.40;9.15;;;;;;;10.64;86.91;97820.94;5042144;28;20617;-82
2022/10/21 04:23:30;;;;;;;14.88;8.43;;;;;;;10.63;86.18;97816.69;5040809;28;20163;-82
2022/10/21 04:25:55;;;;;;;15.60;10.45;;;;;;;10.60;86.49;97811.84;5040603;28;20053;-82
2022/10/21 04:28:21;;;;;;;12.05;9.60;;;;;;;10.60;86.47;97806.59;5041102;28;20045;-82
2022/10/21 04:30:49;;;;;;;16.17;9.60;;;;;;;10.58;86.23;97795.53;5040085;28;20087;-82
2022/10/21 04:33:14;;;;;;;15.45;10.25;;;;;;;10.62;86.43;97789.66;5041384;28;20043;-82
2022/10/21 04:35:39;;;;;;;16.92;10.90;;;;;;;10.69;86.07;97787.03;5041666;28;20488;-83
2022/10/21 04:38:05;;;;;;;19.10;11.45;;;;;;;10.69;86.08;97779.97;5040462;28;20599;-82
2022/10/21 04:40:30;;;;;;;14.70;10.27;;;;;;;10.66;85.88;97763.81;5040361;28;20125;-82
2022/10/21 04:42:56;;;;;;;14.27;9.00;;;;;;;10.70;86.18;97752.72;5040690;28;20045;-82
2022/10/21 04:45:21;;;;;;;14.23;9.43;;;;;;;10.75;86.16;97754.72;5040730;28;20025;-82
2022/10/21 04:47:47;;;;;;;12.10;9.52;;;;;;;10.83;86.36;97749.22;5044766;28;20083;-83
2022/10/21 04:50:12;;;;;;;12.48;8.00;;;;;;;10.79;86.08;97748.00;5041104;28;20037;-82
2022/10/21 04:52:38;;;;;;;13.18;8.90;;;;;;;10.87;86.46;97744.38;5044739;28;20033;-82
2022/10/21 04:55:05;;;;;;;11.43;8.55;;;;;;;10.94;85.72;97732.81;5041924;28;20049;-82
2022/10/21 04:57:30;;;;;;;12.38;8.85;;;;;;;10.94;85.52;97729.38;5048972;28;20040;-82
2022/10/21 04:59:55;;;;;;;11.70;8.35;;;;;;;10.94;85.90;97732.81;5045106;28;20045;-82
2022/10/21 05:02:21;;;;;;;12.20;8.93;;;;;;;10.96;86.12;97733.41;5045391;28;20040;-82
2022/10/21 05:04:47;;;;;;;12.73;9.20;;;;;;;10.97;85.97;97729.78;5048537;28;20080;-82
2022/10/21 05:07:13;;;;;;;14.43;9.52;;;;;;;11.07;86.34;97739.00;5044494;28;20040;-83
2022/10/21 05:09:38;;;;;;;12.55;9.00;;;;;;;11.10;85.88;97741.22;5041406;28;20025;-82
2022/10/21 05:12:04;;;;;;;12.95;9.18;;;;;;;11.08;85.55;97740.59;5044913;28;20086;-82
2022/10/21 05:14:29;;;;;;;11.43;8.73;;;;;;;11.04;85.64;97734.19;5045515;28;20112;-82
2022/10/21 05:16:55;;;;;;;12.43;9.00;;;;;;;11.02;85.79;97725.69;5044693;28;20592;-83
2022/10/21 05:19:20;;;;;;;14.75;9.50;;;;;;;11.07;86.35;97734.56;5045316;28;20045;-82
2022/10/21 05:21:46;;;;;;;13.68;8.80;;;;;;;11.06;85.69;97737.41;5043891;28;20049;-82
2022/10/21 05:24:13;;;;;;;14.43;8.82;;;;;;;11.06;86.04;97726.91;5025544;28;20415;-82
2022/10/21 05:26:38;;;;;;;13.18;8.95;;;;;;;11.03;85.97;97727.31;5044380;28;20384;-82
2022/10/21 05:29:04;;;;;;;15.30;9.38;;;;;;;11.02;86.13;97730.94;5043938;28;20044;-83
2022/10/21 05:31:29;;;;;;;13.18;8.70;;;;;;;10.95;85.68;97734.41;5044543;28;20061;-83
2022/10/21 05:33:55;;;;;;;12.00;9.02;;;;;;;10.93;85.82;97744.34;5042623;28;20072;-82
2022/10/21 05:36:21;;;;;;;15.65;8.10;;;;;;;10.97;86.14;97740.28;5042931;28;20029;-83
2022/10/21 05:38:46;;;;;;;11.45;9.30;;;;;;;10.98;86.53;97744.50;5040867;28;20473;-83
2022/10/21 05:41:12;;;;;;;14.18;8.80;;;;;;;10.96;86.21;97736.03;5043146;28;20082;-83
2022/10/21 05:43:37;;;;;;;12.70;9.15;;;;;;;11.01;86.56;97729.34;5044337;28;20039;-82
2022/10/21 05:46:03;;;;;;;12.05;8.85;;;;;;;11.04;86.20;97739.44;5044272;28;20040;-83
2022/10/21 05:48:29;;;;;;;13.60;9.35;;;;;;;11.08;86.63;97740.59;5044484;28;20447;-83
2022/10/21 05:50:55;;;;;;;11.82;9.10;;;;;;;11.07;86.25;97729.31;5043439;28;20037;-82
2022/10/21 05:53:23;;;;;;;13.98;9.35;;;;;;;11.09;86.14;97729.88;5044454;28;20041;-83
2022/10/21 05:56:04;;;;;;;12.80;8.98;;;;;;;11.19;86.44;97742.56;5041014;28;20041;-83
2022/10/21 05:58:32;;;;;;;14.55;9.13;;;;;;;11.28;87.17;97743.94;5043105;28;20070;-82
2022/10/21 06:00:59;;;;;;;16.60;9.00;;;;;;;11.34;85.83;97750.16;5042583;28;20045;-82
2022/10/21 06:03:31;;;;;;;10.90;8.32;;;;;;;11.38;86.22;97733.75;5043829;28;20051;-82
2022/10/21 06:05:59;;;;;;;13.45;8.77;;;;;;;11.45;85.93;97745.00;5042256;28;20902;-82
2022/10/21 06:08:27;;;;;;;12.60;8.25;;;;;;;11.45;85.00;97757.31;5042147;28;20484;-82
2022/10/21 06:11:02;;;;;;;12.45;9.18;;;;;;;11.51;86.24;97764.34;5039216;28;20040;-83
2022/10/21 06:13:27;;;;;;;11.57;8.98;;;;;;;11.53;85.40;97763.13;5042087;28;20034;-83
2022/10/21 06:15:53;;;;;;;12.90;9.10;;;;;;;11.63;86.33;97767.88;5042742;28;20396;-82
2022/10/21 06:18:18;;;;;;;11.40;8.15;;;;;;;11.73;86.40;97770.84;5042182;28;20163;-83
2022/10/21 06:20:44;;;;;;;10.77;8.23;;;;;;;11.79;86.01;97775.25;5043470;28;20098;-82
2022/10/21 06:23:11;;;;;;;15.93;8.52;;;;;;;11.86;86.24;97762.06;5042366;28;20029;-83
2022/10/21 06:25:36;;;;;;;16.15;8.70;;;;;;;11.91;86.14;97754.34;5043315;28;20033;-82
2022/10/21 06:28:02;;;;;;;12.05;8.82;;;;;;;11.94;84.97;97761.81;5042594;28;20092;-83
2022/10/21 06:30:28;;;;;;;11.30;8.00;;;;;;;11.86;84.25;97772.59;5042372;28;20029;-82
2022/10/21 06:32:53;;;;;;;12.13;8.38;;;;;;;11.94;84.56;97776.78;5042379;28;20044;-83
2022/10/21 06:35:18;;;;;;;11.18;8.27;;;;;;;11.95;84.78;97770.50;5043039;28;20067;-83
2022/10/21 06:37:44;;;;;;;15.80;8.75;;;;;;;12.04;85.66;97777.88;5042231;28;20041;-83
2022/10/21 06:40:10;;;;;;;12.13;8.55;;;;;;;12.11;84.45;97782.28;5041978;28;20052;-83
2022/10/21 06:42:36;;;;;;;12.45;8.95;;;;;;;12.11;84.13;97777.81;5041451;28;20162;-82
2022/10/21 06:45:01;;;;;;;12.15;8.50;;;;;;;12.22;84.92;97784.19;5043242;28;20048;-83
2022/10/21 06:47:27;;;;;;;10.30;8.13;;;;;;;12.21;83.53;97785.22;5047627;28;20086;-82
2022/10/21 06:49:52;;;;;;;12.45;8.90;;;;;;;12.25;84.20;97783.78;5043901;28;20108;-83
2022/10/21 06:52:18;;;;;;;13.15;8.02;;;;;;;12.21;84.16;97793.09;5048585;28;20036;-83
2022/10/21 06:54:43;;;;;;;15.95;8.68;;;;;;;12.25;84.08;97791.66;5041378;28;20124;-83
2022/10/21 06:57:08;;;;;;;15.85;8.93;;;;;;;12.30;84.58;97803.13;5043798;28;20037;-83
2022/10/21 06:59:34;;;;;;;13.80;8.25;;;;;;;12.31;84.74;97809.19;5040881;28;20033;-82
2022/10/21 07:01:59;;;;;;;16.23;9.52;;;;;;;12.38;84.98;97803.88;5042731;28;20875;-82
2022/10/21 07:04:25;;;;;;;14.20;9.07;;;;;;;12.44;85.71;97801.16;5040769;28;20041;-83
2022/10/21 07:06:50;;;;;;;12.88;8.70;;;;;;;12.54;86.13;97788.31;5041840;28;20037;-83
2022/10/21 07:09:16;;;;;;;14.38;9.18;;;;;;;12.64;85.36;97787.00;5038610;28;20048;-83
2022/10/21 07:11:43;;;;;;;13.27;9.00;;;;;;;12.71;84.48;97782.44;5041564;28;20033;-83
2022/10/21 07:14:09;;;;;;;14.82;8.90;;;;;;;12.68;84.34;97773.19;5043054;28;20753;-83
2022/10/21 07:16:36;;;;;;;14.48;8.85;;;;;;;12.67;84.97;97781.31;5042605;28;20038;-82
2022/10/21 07:19:03;;;;;;;11.68;8.90;;;;;;;12.67;85.86;97776.03;5042657;28;20521;-82
2022/10/21 07:21:30;;;;;;;12.95;8.52;;;;;;;12.68;86.33;97761.84;5041535;28;20033;-82
2022/10/21 07:23:58;;;;;;;11.88;8.95;;;;;;;12.71;86.49;97772.72;5041400;28;20111;-83
2022/10/21 07:26:24;;;;;;;11.20;8.68;;;;;;;12.77;87.43;97778.94;5040765;28;20052;-82
2022/10/21 07:28:51;;;;;;;11.02;9.07;;;;;;;12.81;87.69;97786.16;5041867;28;20037;-82
2022/10/21 07:31:18;;;;;;;11.98;9.70;;;;;;;12.89;87.96;97795.59;5040781;28;20025;-82
2022/10/21 07:33:44;;;;;;;15.35;9.93;;;;;;;12.94;88.35;97797.56;5041902;28;20052;-82
2022/10/21 07:36:19;;;;;;;13.38;9.38;;;;;;;12.94;88.21;97808.09;5042522;28;20131;-82
2022/10/21 07:38:47;;;;;;;14.60;9.43;;;;;;;12.99;88.50;97810.88;5040372;28;20041;-82
2022/10/21 07:41:20;;;;;;;13.13;9.13;;;;;;;13.01;88.45;97819.34;5041869;28;20124;-82
2022/10/21 07:43:47;;;;;;;15.13;9.55;;;;;;;13.01;89.16;97819.34;5041259;28;20115;-82
2022/10/21 07:46:13;;;;;;;13.75;9.77;;;;;;;12.96;88.75;97816.59;5041307;28;20032;-82
2022/10/21 07:48:38;;;;;;;15.55;9.43;;;;;;;12.99;89.24;97795.88;5042991;28;20036;-82
2022/10/21 07:51:11;;;;;;;17.13;10.13;;;;;;;13.00;89.49;97792.22;5027848;28;20036;-82
2022/10/21 07:53:38;;;;;;;16.30;9.70;;;;;;;13.03;89.90;97797.03;5043288;28;20116;-81
2022/10/21 08:00:43;;;;;;;14.70;9.48;;;;;;;13.04;91.35;97782.84;5070427;27;20829;-82
2022/10/21 08:03:11;;;;;;;14.68;10.40;;;;;;;13.17;92.55;97783.69;5037504;28;20067;-82
2022/10/21 08:05:40;;;;;;;16.10;10.30;;;;;;;13.32;92.52;97789.41;5036495;28;20098;-82
2022/10/21 08:08:06;;;;;;;16.17;10.88;;;;;;;13.36;92.19;97795.81;5037077;28;20059;-82
2022/10/21 08:10:31;;;;;;;16.45;10.77;;;;;;;13.42;91.95;97794.91;5034114;28;20033;-82
2022/10/21 08:12:56;;;;;;;16.17;10.20;;;;;;;13.49;92.06;97811.41;5038777;28;20037;-82
2022/10/21 08:15:22;;;;;;;12.93;10.15;;;;;;;13.54;91.75;97802.84;5037678;28;20061;-82
2022/10/21 08:17:47;;;;;;;15.10;9.48;;;;;;;13.58;92.07;97807.44;5046150;28;20120;-82
2022/10/21 08:20:13;;;;;;;17.13;10.73;;;;;;;13.54;91.31;97811.56;5055824;28;20032;-82
2022/10/21 08:22:38;;;;;;;15.85;11.07;;;;;;;13.63;92.38;97804.94;5055359;28;20202;-82
2022/10/21 08:25:05;;;;;;;17.95;10.23;;;;;;;13.82;91.50;97816.22;5056350;28;20484;-81
2022/10/21 08:27:30;;;;;;;13.73;10.38;;;;;;;13.88;90.85;97814.50;5056153;28;20380;-82
2022/10/21 08:29:56;;;;;;;12.73;9.82;;;;;;;13.97;90.59;97818.41;5057540;28;20029;-81
2022/10/21 08:32:21;;;;;;;14.05;10.23;;;;;;;13.97;89.45;97818.41;5055406;28;20032;-82
2022/10/21 08:34:46;;;;;;;12.70;9.60;;;;;;;14.04;89.48;97823.59;5060585;28;20156;-82
2022/10/21 08:37:12;;;;;;;12.10;9.57;;;;;;;13.99;89.49;97813.72;5057614;28;20033;-82
2022/10/21 08:39:37;;;;;;;14.10;9.88;;;;;;;14.02;89.60;97815.09;5056993;28;20037;-82
2022/10/21 08:42:16;;;;;;;14.23;8.95;;;;;;;13.88;89.75;97817.13;5057668;28;20036;-82
2022/10/21 08:44:58;;;;;;;13.45;9.80;;;;;;;13.86;91.19;97816.56;5055971;28;20041;-82
2022/10/21 08:47:45;;;;;;;15.43;11.00;;;;;;;13.82;91.99;97818.84;5056364;28;20400;-82
2022/10/21 08:50:16;;;;;;;20.75;11.88;;;;;;;13.80;91.98;97814.84;5057777;28;20024;-82
2022/10/21 08:53:13;;;;;;;18.58;11.68;;;;;;;13.79;93.00;97806.09;5052311;28;20037;-81
2022/10/21 08:55:42;;;;;;;14.63;9.88;;;;;;;13.77;92.39;97800.28;5055483;28;20066;-82
2022/10/21 08:58:26;;;;;;;17.88;10.98;;;;;;;13.79;93.17;97810.56;5056495;28;20076;-82
2022/10/21 09:01:25;;;;;;;18.10;11.75;;;;;;;13.79;94.14;97800.84;5056958;28;20037;-81
2022/10/21 09:04:14;;;;;;;14.43;10.57;;;;;;;13.81;93.63;97788.25;5057349;28;20094;-81
2022/10/21 09:07:10;;;;;;;13.20;10.35;;;;;;;13.84;93.58;97781.72;5055714;28;20071;-80
2022/10/21 09:10:01;;;;;;;14.73;10.43;;;;;;;13.85;93.63;97778.88;5053014;28;20040;-81
2022/10/21 09:13:03;;;;;;;16.85;11.27;;;;;;;13.84;93.76;97771.16;5042138;28;20029;-80
2022/10/21 09:15:39;;;;;;;19.85;10.82;;;;;;;13.82;93.50;97765.31;5041364;28;20040;-80
2022/10/21 09:18:49;;;;;;;15.45;10.95;;;;;;;13.82;93.73;97757.41;5042468;28;20066;-81
2022/10/21 09:21:40;;;;;;;16.98;11.15;;;;;;;13.84;94.02;97765.91;5042142;28;20088;-85
2022/10/21 09:24:45;;;;;;;14.80;11.37;;;;;;;13.83;93.98;97764.28;5042858;28;20035;-84
2022/10/21 09:27:10;;;;;;;15.18;10.55;;;;;;;13.80;94.17;97752.38;5040326;28;20036;-84
2022/10/21 09:29:41;;;;;;;14.75;11.30;;;;;;;13.72;94.45;97762.44;5042245;28;20041;-87
2022/10/21 09:32:21;;;;;;;16.42;11.85;;;;;;;13.73;94.81;97769.31;5043235;28;20362;-81
2022/10/21 09:35:21;;;;;;;17.10;11.43;;;;;;;13.74;95.50;97776.22;5042674;28;20456;-82
2022/10/21 09:37:56;;;;;;;17.17;11.52;;;;;;;13.80;95.60;97780.56;5043166;28;20061;-86
2022/10/21 09:40:29;;;;;;;16.02;11.88;;;;;;;13.82;95.90;97796.97;5042581;28;20950;-80
2022/10/21 09:43:01;;;;;;;17.27;11.65;;;;;;;13.83;95.93;97785.38;5041747;28;20443;-80
2022/10/21 09:45:40;;;;;;;16.73;12.35;;;;;;;13.93;95.65;97790.91;5041240;28;20056;-80
2022/10/21 09:48:18;;;;;;;17.90;12.43;;;;;;;13.99;96.19;97808.44;5046100;28;20037;-90
2022/10/21 09:50:59;;;;;;;20.50;14.05;;;;;;;13.97;96.33;97794.66;5052473;28;20040;-91
2022/10/21 09:53:37;;;;;;;19.15;12.52;;;;;;;14.11;95.93;97790.78;5051030;28;20123;-91
2022/10/21 09:56:13;;;;;;;19.08;12.88;;;;;;;13.99;95.34;97768.91;5050351;28;20167;-90
2022/10/21 09:58:44;;;;;;;23.00;12.65;;;;;;;14.25;95.13;97786.06;5048942;28;20128;-91
2022/10/21 10:01:20;;;;;;;16.17;11.55;;;;;;;14.27;94.88;97768.19;5050822;28;20039;-89
2022/10/21 10:03:50;;;;;;;14.70;11.63;;;;;;;14.36;94.42;97787.09;5051180;28;20045;-90
2022/10/21 10:06:39;;;;;;;18.90;12.50;;;;;;;14.50;95.46;97800.88;5044806;28;20124;-91
2022/10/21 10:09:40;;;;;;;;;;;;;;;;;;;;;
2022/10/21 10:12:21;;;;;;;17.75;11.07;;;;;;;14.34;93.29;97799.75;5046201;28;20029;-91
2022/10/21 10:14:47;;;;;;;16.15;11.75;;;;;;;14.27;93.77;97788.47;5044501;28;20029;-91
2022/10/21 10:17:36;;;;;;;19.80;11.85;;;;;;;14.26;94.81;97794.78;5034018;28;20084;-91
2022/10/21 10:20:07;;;;;;;17.88;11.75;;;;;;;14.45;94.76;97809.44;5032231;28;20033;-91
2022/10/21 10:22:42;;;;;;;14.82;11.32;;;;;;;14.40;94.72;97775.06;5014131;28;20076;-91
2022/10/21 10:25:21;;;;;;;18.30;11.63;;;;;;;14.25;94.44;97756.25;5014972;28;20025;-90
2022/10/21 10:27:56;;;;;;;16.48;11.18;;;;;;;14.37;95.33;97764.97;5048980;28;20108;-91
2022/10/21 10:30:36;;;;;;;17.05;10.90;;;;;;;14.27;96.27;97759.47;5034536;28;20032;-91
2022/10/21 10:33:13;;;;;;;17.60;10.95;;;;;;;14.14;96.74;97737.56;5050891;28;20029;-91
2022/10/21 10:35:54;;;;;;;18.13;10.23;;;;;;;14.07;97.45;97715.81;5052022;28;20491;-91
2022/10/21 10:38:44;;;;;;;15.32;10.68;;;;;;;14.28;97.83;97740.78;5067679;28;20033;-89
2022/10/21 10:41:20;;;;;;;15.20;11.25;;;;;;;14.24;98.66;97723.00;5052449;28;20028;-91
2022/10/21 10:43:52;;;;;;;16.85;11.38;;;;;;;14.26;98.63;97726.22;5051732;28;20033;-90
2022/10/21 10:46:34;;;;;;;20.15;11.98;;;;;;;14.35;99.36;97711.66;5050058;28;20704;-90
2022/10/21 10:49:12;;;;;;;17.02;11.65;;;;;;;14.46;98.63;97700.25;5051318;28;20083;-91
2022/10/21 10:51:41;;;;;;;14.43;10.65;;;;;;;14.44;98.72;97702.31;5051445;28;20037;-90
2022/10/21 10:54:20;;;;;;;17.02;11.05;;;;;;;14.53;98.69;97713.34;5046836;28;20098;-90
2022/10/21 10:57:12;;;;;;;18.00;11.35;;;;;;;14.48;98.59;97703.50;5063182;28;20060;-90
2022/10/21 10:59:54;;;;;;;15.90;11.15;;;;;;;14.51;98.49;97708.28;5058336;28;20049;-89
2022/10/21 11:03:12;;;;;;;17.80;11.88;;;;;;;14.57;98.82;97754.84;5029846;28;20057;-90
2022/10/21 11:05:49;;;;;;;19.75;12.85;;;;;;;14.38;100.00;97814.84;5017953;28;20038;-91
2022/10/21 11:08:28;;;;;;;20.05;12.95;;;;;;;14.27;100.00;97852.59;5022230;28;20384;-90
2022/10/21 11:11:00;;;;;;;19.38;12.93;;;;;;;14.30;100.00;97838.16;5049863;28;20061;-91
2022/10/21 11:13:27;;;;;;;19.92;13.57;;;;;;;14.26;100.00;97837.00;5053891;28;20499;-90
2022/10/21 11:16:10;;;;;;;19.70;12.93;;;;;;;14.24;100.00;97836.44;5053746;28;20028;-90
2022/10/21 11:19:07;;;;;;;20.10;12.88;;;;;;;14.34;100.00;97823.47;5051043;28;20032;-91
2022/10/21 11:21:52;;;;;;;22.20;13.68;;;;;;;14.31;100.00;97824.72;5051678;28;20032;-91
2022/10/21 11:24:33;;;;;;;21.80;13.23;;;;;;;14.31;100.00;97818.66;5050308;28;20037;-90
2022/10/21 11:27:09;;;;;;;23.90;14.18;;;;;;;14.22;100.00;97812.94;5052169;28;20037;-90
2022/10/21 11:29:57;;;;;;;24.83;14.73;;;;;;;14.11;100.00;97814.53;5051698;28;20051;-92
2022/10/21 11:32:47;;;;;;;26.00;15.77;;;;;;;14.34;100.00;97831.41;5052261;28;20032;-90
2022/10/21 11:35:24;;;;;;;22.50;15.80;;;;;;;14.54;100.00;97826.59;5050214;28;20029;-91
2022/10/21 11:38:35;;;;;;;22.55;15.27;;;;;;;14.68;100.00;97817.38;5032066;28;20042;-90
2022/10/21 11:41:25;;;;;;;27.58;15.93;;;;;;;14.81;99.69;97805.75;5051012;28;20062;-91
2022/10/21 11:44:41;;;;;;;23.08;14.70;;;;;;;14.93;98.57;97809.19;5048924;28;20029;-91
2022/10/21 11:47:56;;;;;;;21.27;14.75;;;;;;;14.89;97.74;97801.97;5052656;28;20032;-91
2022/10/21 11:50:37;;;;;;;19.63;14.57;;;;;;;15.05;97.76;97805.69;5030277;28;20100;-90
2022/10/21 11:53:31;;;;;;;21.73;15.23;;;;;;;15.02;97.32;97814.88;5030491;28;20109;-89